sensor_id;sensor_type;location;lat;lon;timestamp;temperature;humidity
8408;DHT22;4241;48.452;9.216;2023-03-16T00:01:18;1.60;99.90
8408;DHT22;4241;48.452;9.216;2023-03-16T00:03:47;1.50;99.90
8408;DHT22;4241;48.452;9.216;2023-03-16T00:06:14;1.50;99.90
8408;DHT22;4241;48.452;9.216;2023-03-16T00:08:40;1.40;99.90
8408;DHT22;4241;48.452;9.216;2023-03-16T00:18:33;1.50;99.90
8408;DHT22;4241;48.452;9.216;2023-03-16T00:21:05;1.40;99.90
8408;DHT22;4241;48.452;9.216;2023-03-16T00:23:32;1.40;99.90
8408;DHT22;4241;48.452;9.216;2023-03-16T00:26:02;1.40;99.90
8408;DHT22;4241;48.452;9.216;2023-03-16T00:28:31;1.40;99.90
8408;DHT22;4241;48.452;9.216;2023-03-16T00:31:00;1.40;99.90
8408;DHT22;4241;48.452;9.216;2023-03-16T00:33:27;1.30;99.90
8408;DHT22;4241;48.452;9.216;2023-03-16T00:38:31;1.30;99.90
8408;DHT22;4241;48.452;9.216;2023-03-16T00:40:59;1.20;99.90
8408;DHT22;4241;48.452;9.216;2023-03-16T00:43:28;1.00;99.90
8408;DHT22;4241;48.452;9.216;2023-03-16T00:45:58;1.00;99.90
8408;DHT22;4241;48.452;9.216;2023-03-16T00:53:27;0.90;99.90
8408;DHT22;4241;48.452;9.216;2023-03-16T00:55:54;1.10;99.90
8408;DHT22;4241;48.452;9.216;2023-03-16T00:58:21;1.20;99.90
8408;DHT22;4241;48.452;9.216;2023-03-16T01:00:49;1.20;99.90
8408;DHT22;4241;48.452;9.216;2023-03-16T01:03:18;1.30;99.90
8408;DHT22;4241;48.452;9.216;2023-03-16T01:10:40;1.10;99.90
8408;DHT22;4241;48.452;9.216;2023-03-16T01:15:38;1.20;99.90
8408;DHT22;4241;48.452;9.216;2023-03-16T01:18:05;1.30;99.90
8408;DHT22;4241;48.452;9.216;2023-03-16T01:22:59;1.30;99.90
8408;DHT22;4241;48.452;9.216;2023-03-16T01:25:26;1.20;99.90
8408;DHT22;4241;48.452;9.216;2023-03-16T01:27:55;1.20;99.90
8408;DHT22;4241;48.452;9.216;2023-03-16T01:30:22;1.30;99.90
8408;DHT22;4241;48.452;9.216;2023-03-16T01:35:17;1.40;99.90
8408;DHT22;4241;48.452;9.216;2023-03-16T01:37:45;1.40;99.90
8408;DHT22;4241;48.452;9.216;2023-03-16T01:42:45;1.30;99.90
8408;DHT22;4241;48.452;9.216;2023-03-16T01:48:19;1.40;99.90
8408;DHT22;4241;48.452;9.216;2023-03-16T01:53:14;1.50;99.90
8408;DHT22;4241;48.452;9.216;2023-03-16T01:55:41;1.40;99.90
8408;DHT22;4241;48.452;9.216;2023-03-16T02:00:36;1.60;99.90
8408;DHT22;4241;48.452;9.216;2023-03-16T02:03:06;1.40;99.90
8408;DHT22;4241;48.452;9.216;2023-03-16T02:05:39;1.50;99.90
8408;DHT22;4241;48.452;9.216;2023-03-16T02:08:09;1.40;99.90
8408;DHT22;4241;48.452;9.216;2023-03-16T02:10:37;1.40;99.90
8408;DHT22;4241;48.452;9.216;2023-03-16T02:13:05;1.30;99.90
8408;DHT22;4241;48.452;9.216;2023-03-16T02:15:32;1.40;99.90
8408;DHT22;4241;48.452;9.216;2023-03-16T02:18:00;1.40;99.90
8408;DHT22;4241;48.452;9.216;2023-03-16T02:20:35;1.40;99.90
8408;DHT22;4241;48.452;9.216;2023-03-16T02:23:04;1.70;99.90
8408;DHT22;4241;48.452;9.216;2023-03-16T02:25:37;1.40;99.90
8408;DHT22;4241;48.452;9.216;2023-03-16T02:28:11;1.40;99.90
8408;DHT22;4241;48.452;9.216;2023-03-16T02:30:42;1.60;99.90
8408;DHT22;4241;48.452;9.216;2023-03-16T02:33:09;1.60;99.90
8408;DHT22;4241;48.452;9.216;2023-03-16T02:35:37;1.50;99.90
8408;DHT22;4241;48.452;9.216;2023-03-16T02:38:03;1.50;99.90
8408;DHT22;4241;48.452;9.216;2023-03-16T02:40:32;1.40;99.90
8408;DHT22;4241;48.452;9.216;2023-03-16T02:43:01;1.40;99.90
8408;DHT22;4241;48.452;9.216;2023-03-16T02:45:31;1.40;99.90
8408;DHT22;4241;48.452;9.216;2023-03-16T02:48:06;1.40;99.90
8408;DHT22;4241;48.452;9.216;2023-03-16T02:50:43;1.50;99.90
8408;DHT22;4241;48.452;9.216;2023-03-16T02:55:38;1.80;99.90
8408;DHT22;4241;48.452;9.216;2023-03-16T03:00:32;1.70;99.90
8408;DHT22;4241;48.452;9.216;2023-03-16T03:02:59;1.70;99.90
8408;DHT22;4241;48.452;9.216;2023-03-16T03:05:27;1.80;99.90
8408;DHT22;4241;48.452;9.216;2023-03-16T03:07:54;1.80;99.90
8408;DHT22;4241;48.452;9.216;2023-03-16T03:12:48;1.90;99.90
8408;DHT22;4241;48.452;9.216;2023-03-16T03:15:15;1.80;99.90
8408;DHT22;4241;48.452;9.216;2023-03-16T03:17:43;1.90;99.90
8408;DHT22;4241;48.452;9.216;2023-03-16T03:20:11;1.90;99.90
8408;DHT22;4241;48.452;9.216;2023-03-16T03:22:43;1.80;99.90
8408;DHT22;4241;48.452;9.216;2023-03-16T03:30:08;1.80;99.90
8408;DHT22;4241;48.452;9.216;2023-03-16T03:35:02;1.90;99.90
8408;DHT22;4241;48.452;9.216;2023-03-16T03:37:30;1.80;99.90
8408;DHT22;4241;48.452;9.216;2023-03-16T03:39:58;1.90;99.90
8408;DHT22;4241;48.452;9.216;2023-03-16T03:44:52;1.70;99.90
8408;DHT22;4241;48.452;9.216;2023-03-16T03:47:19;1.90;99.90
8408;DHT22;4241;48.452;9.216;2023-03-16T03:49:46;1.90;99.90
8408;DHT22;4241;48.452;9.216;2023-03-16T03:52:12;1.80;99.90
8408;DHT22;4241;48.452;9.216;2023-03-16T03:57:08;1.90;99.90
8408;DHT22;4241;48.452;9.216;2023-03-16T03:59:35;1.90;99.90
8408;DHT22;4241;48.452;9.216;2023-03-16T04:02:07;1.90;99.90
8408;DHT22;4241;48.452;9.216;2023-03-16T04:04:34;1.90;99.90
8408;DHT22;4241;48.452;9.216;2023-03-16T04:07:01;1.80;99.90
8408;DHT22;4241;48.452;9.216;2023-03-16T04:09:28;1.90;99.90
8408;DHT22;4241;48.452;9.216;2023-03-16T04:14:26;2.00;99.90
8408;DHT22;4241;48.452;9.216;2023-03-16T04:16:53;2.00;99.90
8408;DHT22;4241;48.452;9.216;2023-03-16T04:21:48;1.90;99.90
8408;DHT22;4241;48.452;9.216;2023-03-16T04:24:15;2.00;99.90
8408;DHT22;4241;48.452;9.216;2023-03-16T04:26:42;2.00;99.90
8408;DHT22;4241;48.452;9.216;2023-03-16T04:29:10;1.90;99.90
8408;DHT22;4241;48.452;9.216;2023-03-16T04:31:38;2.00;99.90
8408;DHT22;4241;48.452;9.216;2023-03-16T04:36:34;2.00;99.90
8408;DHT22;4241;48.452;9.216;2023-03-16T04:39:00;2.00;99.90
8408;DHT22;4241;48.452;9.216;2023-03-16T04:43:56;2.20;99.90
8408;DHT22;4241;48.452;9.216;2023-03-16T04:46:24;2.00;99.90
8408;DHT22;4241;48.452;9.216;2023-03-16T04:48:53;2.00;99.90
8408;DHT22;4241;48.452;9.216;2023-03-16T04:51:23;2.00;99.90
8408;DHT22;4241;48.452;9.216;2023-03-16T04:56:17;2.20;99.90
8408;DHT22;4241;48.452;9.216;2023-03-16T05:01:11;2.10;99.90
8408;DHT22;4241;48.452;9.216;2023-03-16T05:03:37;2.00;99.90
8408;DHT22;4241;48.452;9.216;2023-03-16T05:06:06;2.00;99.90
8408;DHT22;4241;48.452;9.216;2023-03-16T05:08:33;2.00;99.90
8408;DHT22;4241;48.452;9.216;2023-03-16T05:10:59;2.10;99.90
8408;DHT22;4241;48.452;9.216;2023-03-16T05:13:26;2.10;99.90
8408;DHT22;4241;48.452;9.216;2023-03-16T05:15:53;2.00;99.90
8408;DHT22;4241;48.452;9.216;2023-03-16T05:20:49;1.90;99.90
8408;DHT22;4241;48.452;9.216;2023-03-16T05:23:18;1.90;99.90
8408;DHT22;4241;48.452;9.216;2023-03-16T05:25:45;1.90;99.90
8408;DHT22;4241;48.452;9.216;2023-03-16T05:28:12;2.00;99.90
8408;DHT22;4241;48.452;9.216;2023-03-16T05:30:39;1.90;99.90
8408;DHT22;4241;48.452;9.216;2023-03-16T05:33:06;1.70;99.90
8408;DHT22;4241;48.452;9.216;2023-03-16T05:38:00;1.80;99.90
8408;DHT22;4241;48.452;9.216;2023-03-16T05:40:29;1.90;99.90
8408;DHT22;4241;48.452;9.216;2023-03-16T05:45:26;1.80;99.90
8408;DHT22;4241;48.452;9.216;2023-03-16T05:47:53;1.80;99.90
8408;DHT22;4241;48.452;9.216;2023-03-16T05:55:16;1.80;99.90
8408;DHT22;4241;48.452;9.216;2023-03-16T05:57:44;1.60;99.90
8408;DHT22;4241;48.452;9.216;2023-03-16T06:00:13;1.50;99.90
8408;DHT22;4241;48.452;9.216;2023-03-16T06:02:41;1.40;99.90
8408;DHT22;4241;48.452;9.216;2023-03-16T06:05:09;1.60;99.90
8408;DHT22;4241;48.452;9.216;2023-03-16T06:10:04;1.60;99.90
8408;DHT22;4241;48.452;9.216;2023-03-16T06:12:31;1.70;99.90
8408;DHT22;4241;48.452;9.216;2023-03-16T06:15:00;1.60;99.90
8408;DHT22;4241;48.452;9.216;2023-03-16T06:22:21;1.90;99.90
8408;DHT22;4241;48.452;9.216;2023-03-16T06:24:49;1.80;99.90
8408;DHT22;4241;48.452;9.216;2023-03-16T06:32:13;1.90;99.90
8408;DHT22;4241;48.452;9.216;2023-03-16T06:34:40;1.90;99.90
8408;DHT22;4241;48.452;9.216;2023-03-16T06:37:07;2.00;99.90
8408;DHT22;4241;48.452;9.216;2023-03-16T06:39:34;2.10;99.90
8408;DHT22;4241;48.452;9.216;2023-03-16T06:44:30;2.30;99.90
8408;DHT22;4241;48.452;9.216;2023-03-16T06:49:25;2.20;99.90
8408;DHT22;4241;48.452;9.216;2023-03-16T06:51:52;2.20;99.90
8408;DHT22;4241;48.452;9.216;2023-03-16T06:54:19;2.30;99.90
8408;DHT22;4241;48.452;9.216;2023-03-16T07:01:40;2.50;99.90
8408;DHT22;4241;48.452;9.216;2023-03-16T07:04:08;2.60;99.90
8408;DHT22;4241;48.452;9.216;2023-03-16T07:06:38;2.60;99.90
8408;DHT22;4241;48.452;9.216;2023-03-16T07:09:05;2.60;99.90
8408;DHT22;4241;48.452;9.216;2023-03-16T07:14:00;2.80;99.90
8408;DHT22;4241;48.452;9.216;2023-03-16T07:16:27;2.90;99.90
8408;DHT22;4241;48.452;9.216;2023-03-16T07:23:49;3.00;99.90
8408;DHT22;4241;48.452;9.216;2023-03-16T07:26:17;3.10;99.90
8408;DHT22;4241;48.452;9.216;2023-03-16T07:28:44;3.20;99.90
8408;DHT22;4241;48.452;9.216;2023-03-16T07:31:11;3.20;99.90
8408;DHT22;4241;48.452;9.216;2023-03-16T07:33:39;3.20;99.90
8408;DHT22;4241;48.452;9.216;2023-03-16T07:36:07;3.30;99.90
8408;DHT22;4241;48.452;9.216;2023-03-16T07:38:35;3.50;99.90
8408;DHT22;4241;48.452;9.216;2023-03-16T07:41:03;3.40;99.90
8408;DHT22;4241;48.452;9.216;2023-03-16T07:45:57;3.60;99.90
8408;DHT22;4241;48.452;9.216;2023-03-16T07:48:24;3.50;99.90
8408;DHT22;4241;48.452;9.216;2023-03-16T07:50:51;3.80;99.90
8408;DHT22;4241;48.452;9.216;2023-03-16T07:53:19;3.90;99.90
8408;DHT22;4241;48.452;9.216;2023-03-16T07:58:14;3.90;99.90
8408;DHT22;4241;48.452;9.216;2023-03-16T08:00:41;4.00;99.90
8408;DHT22;4241;48.452;9.216;2023-03-16T08:03:08;4.10;99.90
8408;DHT22;4241;48.452;9.216;2023-03-16T08:05:35;4.20;99.90
8408;DHT22;4241;48.452;9.216;2023-03-16T08:10:29;4.50;99.90
8408;DHT22;4241;48.452;9.216;2023-03-16T08:12:56;4.50;99.90
8408;DHT22;4241;48.452;9.216;2023-03-16T08:15:24;4.60;99.90
8408;DHT22;4241;48.452;9.216;2023-03-16T08:17:51;4.70;99.90
8408;DHT22;4241;48.452;9.216;2023-03-16T08:20:18;4.90;99.90
8408;DHT22;4241;48.452;9.216;2023-03-16T08:25:14;5.10;99.90
8408;DHT22;4241;48.452;9.216;2023-03-16T08:30:10;5.20;99.90
8408;DHT22;4241;48.452;9.216;2023-03-16T08:32:39;5.40;99.90
8408;DHT22;4241;48.452;9.216;2023-03-16T08:35:08;5.40;99.90
8408;DHT22;4241;48.452;9.216;2023-03-16T08:37:35;5.50;99.90
8408;DHT22;4241;48.452;9.216;2023-03-16T08:40:03;5.70;99.90
8408;DHT22;4241;48.452;9.216;2023-03-16T08:45:03;5.80;99.90
8408;DHT22;4241;48.452;9.216;2023-03-16T08:50:03;6.10;99.90
8408;DHT22;4241;48.452;9.216;2023-03-16T08:52:31;6.00;99.90
8408;DHT22;4241;48.452;9.216;2023-03-16T08:54:58;6.30;99.90
8408;DHT22;4241;48.452;9.216;2023-03-16T08:57:25;6.40;99.90
8408;DHT22;4241;48.452;9.216;2023-03-16T09:02:20;6.80;99.90
8408;DHT22;4241;48.452;9.216;2023-03-16T09:04:48;7.00;99.90
8408;DHT22;4241;48.452;9.216;2023-03-16T09:07:16;7.10;99.90
8408;DHT22;4241;48.452;9.216;2023-03-16T09:09:43;7.40;99.90
8408;DHT22;4241;48.452;9.216;2023-03-16T09:14:38;7.70;99.90
8408;DHT22;4241;48.452;9.216;2023-03-16T09:17:05;7.80;99.90
8408;DHT22;4241;48.452;9.216;2023-03-16T09:24:29;8.10;99.90
8408;DHT22;4241;48.452;9.216;2023-03-16T09:26:56;8.30;99.90
8408;DHT22;4241;48.452;9.216;2023-03-16T09:31:50;8.50;99.90
8408;DHT22;4241;48.452;9.216;2023-03-16T09:34:17;8.50;99.90
8408;DHT22;4241;48.452;9.216;2023-03-16T09:41:46;8.80;99.90
8408;DHT22;4241;48.452;9.216;2023-03-16T09:44:30;8.70;96.40
8408;DHT22;4241;48.452;9.216;2023-03-16T09:47:00;8.80;99.90
8408;DHT22;4241;48.452;9.216;2023-03-16T09:49:33;9.10;99.90
8408;DHT22;4241;48.452;9.216;2023-03-16T09:52:07;9.70;97.40
8408;DHT22;4241;48.452;9.216;2023-03-16T09:54:44;9.10;99.20
8408;DHT22;4241;48.452;9.216;2023-03-16T09:57:23;9.30;92.80
8408;DHT22;4241;48.452;9.216;2023-03-16T09:59:52;9.40;93.50
8408;DHT22;4241;48.452;9.216;2023-03-16T10:02:40;9.40;94.40
8408;DHT22;4241;48.452;9.216;2023-03-16T10:05:11;9.50;92.10
8408;DHT22;4241;48.452;9.216;2023-03-16T10:07:47;10.00;93.80
8408;DHT22;4241;48.452;9.216;2023-03-16T10:10:25;10.00;93.40
8408;DHT22;4241;48.452;9.216;2023-03-16T10:12:59;10.10;95.20
8408;DHT22;4241;48.452;9.216;2023-03-16T10:15:29;10.20;91.40
8408;DHT22;4241;48.452;9.216;2023-03-16T10:18:01;10.50;92.50
8408;DHT22;4241;48.452;9.216;2023-03-16T10:20:32;10.70;86.00
8408;DHT22;4241;48.452;9.216;2023-03-16T10:23:07;10.50;84.30
8408;DHT22;4241;48.452;9.216;2023-03-16T10:25:43;10.80;83.30
8408;DHT22;4241;48.452;9.216;2023-03-16T10:28:16;10.80;85.20
8408;DHT22;4241;48.452;9.216;2023-03-16T10:30:43;11.00;89.20
8408;DHT22;4241;48.452;9.216;2023-03-16T10:33:18;11.10;76.40
8408;DHT22;4241;48.452;9.216;2023-03-16T10:35:48;11.20;82.90
8408;DHT22;4241;48.452;9.216;2023-03-16T10:38:28;11.40;81.40
8408;DHT22;4241;48.452;9.216;2023-03-16T10:40:58;11.60;82.00
8408;DHT22;4241;48.452;9.216;2023-03-16T10:43:28;11.40;82.30
8408;DHT22;4241;48.452;9.216;2023-03-16T10:46:00;11.60;80.50
8408;DHT22;4241;48.452;9.216;2023-03-16T10:48:30;11.90;80.30
8408;DHT22;4241;48.452;9.216;2023-03-16T10:51:02;11.90;78.90
8408;DHT22;4241;48.452;9.216;2023-03-16T10:53:34;11.90;73.80
8408;DHT22;4241;48.452;9.216;2023-03-16T10:56:09;12.20;78.00
8408;DHT22;4241;48.452;9.216;2023-03-16T10:58:41;12.30;75.80
8408;DHT22;4241;48.452;9.216;2023-03-16T11:01:14;12.40;80.80
8408;DHT22;4241;48.452;9.216;2023-03-16T11:03:47;12.60;73.00
8408;DHT22;4241;48.452;9.216;2023-03-16T11:06:18;12.80;75.90
8408;DHT22;4241;48.452;9.216;2023-03-16T11:11:16;13.10;78.00
8408;DHT22;4241;48.452;9.216;2023-03-16T11:13:47;13.30;80.00
8408;DHT22;4241;48.452;9.216;2023-03-16T11:16:22;13.10;74.70
8408;DHT22;4241;48.452;9.216;2023-03-16T11:18:53;13.40;73.10
8408;DHT22;4241;48.452;9.216;2023-03-16T11:21:26;13.60;74.00
8408;DHT22;4241;48.452;9.216;2023-03-16T11:23:57;13.60;66.60
8408;DHT22;4241;48.452;9.216;2023-03-16T11:26:32;13.70;67.20
8408;DHT22;4241;48.452;9.216;2023-03-16T11:29:04;13.70;76.80
8408;DHT22;4241;48.452;9.216;2023-03-16T11:31:39;13.60;69.50
8408;DHT22;4241;48.452;9.216;2023-03-16T11:34:15;13.80;75.30
8408;DHT22;4241;48.452;9.216;2023-03-16T11:36:47;13.50;69.60
8408;DHT22;4241;48.452;9.216;2023-03-16T11:39:32;13.70;65.90
8408;DHT22;4241;48.452;9.216;2023-03-16T11:42:26;14.00;65.90
8408;DHT22;4241;48.452;9.216;2023-03-16T11:45:00;13.90;63.20
8408;DHT22;4241;48.452;9.216;2023-03-16T11:47:50;14.10;63.20
8408;DHT22;4241;48.452;9.216;2023-03-16T11:50:25;14.40;68.90
8408;DHT22;4241;48.452;9.216;2023-03-16T11:52:59;14.50;65.10
8408;DHT22;4241;48.452;9.216;2023-03-16T11:55:34;14.30;61.50
8408;DHT22;4241;48.452;9.216;2023-03-16T11:58:26;14.60;64.50
8408;DHT22;4241;48.452;9.216;2023-03-16T12:01:00;14.60;58.20
8408;DHT22;4241;48.452;9.216;2023-03-16T12:03:49;14.50;59.20
8408;DHT22;4241;48.452;9.216;2023-03-16T12:06:41;14.30;57.20
8408;DHT22;4241;48.452;9.216;2023-03-16T12:09:33;13.90;63.00
8408;DHT22;4241;48.452;9.216;2023-03-16T12:12:14;13.40;61.40
8408;DHT22;4241;48.452;9.216;2023-03-16T12:14:49;13.50;60.00
8408;DHT22;4241;48.452;9.216;2023-03-16T12:17:22;13.70;59.80
8408;DHT22;4241;48.452;9.216;2023-03-16T12:19:52;13.90;65.50
8408;DHT22;4241;48.452;9.216;2023-03-16T12:22:21;13.60;58.60
8408;DHT22;4241;48.452;9.216;2023-03-16T12:24:49;13.50;66.10
8408;DHT22;4241;48.452;9.216;2023-03-16T12:27:19;13.60;60.60
8408;DHT22;4241;48.452;9.216;2023-03-16T12:29:55;13.60;66.80
8408;DHT22;4241;48.452;9.216;2023-03-16T12:32:35;13.40;60.70
8408;DHT22;4241;48.452;9.216;2023-03-16T12:35:17;13.50;59.00
8408;DHT22;4241;48.452;9.216;2023-03-16T12:37:53;13.70;58.10
8408;DHT22;4241;48.452;9.216;2023-03-16T12:40:30;13.30;60.30
8408;DHT22;4241;48.452;9.216;2023-03-16T12:43:08;13.60;66.20
8408;DHT22;4241;48.452;9.216;2023-03-16T12:45:44;13.70;62.00
8408;DHT22;4241;48.452;9.216;2023-03-16T12:48:23;13.80;62.80
8408;DHT22;4241;48.452;9.216;2023-03-16T12:50:55;13.80;60.50
8408;DHT22;4241;48.452;9.216;2023-03-16T12:53:39;13.50;57.70
8408;DHT22;4241;48.452;9.216;2023-03-16T12:56:08;13.20;59.60
8408;DHT22;4241;48.452;9.216;2023-03-16T12:58:41;13.00;66.30
8408;DHT22;4241;48.452;9.216;2023-03-16T13:01:11;12.80;66.30
8408;DHT22;4241;48.452;9.216;2023-03-16T13:03:41;13.10;66.50
8408;DHT22;4241;48.452;9.216;2023-03-16T13:06:17;13.10;63.20
8408;DHT22;4241;48.452;9.216;2023-03-16T13:08:48;13.10;60.50
8408;DHT22;4241;48.452;9.216;2023-03-16T13:11:16;13.10;62.20
8408;DHT22;4241;48.452;9.216;2023-03-16T13:14:03;13.10;66.20
8408;DHT22;4241;48.452;9.216;2023-03-16T13:16:33;12.90;58.30
8408;DHT22;4241;48.452;9.216;2023-03-16T13:19:25;13.10;57.20
8408;DHT22;4241;48.452;9.216;2023-03-16T13:22:05;12.80;59.30
8408;DHT22;4241;48.452;9.216;2023-03-16T13:24:50;12.70;58.10
8408;DHT22;4241;48.452;9.216;2023-03-16T13:27:20;12.70;59.90
8408;DHT22;4241;48.452;9.216;2023-03-16T13:29:56;12.60;59.50
8408;DHT22;4241;48.452;9.216;2023-03-16T13:32:25;12.70;68.40
8408;DHT22;4241;48.452;9.216;2023-03-16T13:34:57;12.60;68.80
8408;DHT22;4241;48.452;9.216;2023-03-16T13:37:27;12.70;59.30
8408;DHT22;4241;48.452;9.216;2023-03-16T13:39:55;12.60;57.10
8408;DHT22;4241;48.452;9.216;2023-03-16T13:42:23;12.70;60.40
8408;DHT22;4241;48.452;9.216;2023-03-16T13:44:55;12.60;61.70
8408;DHT22;4241;48.452;9.216;2023-03-16T13:47:24;12.70;60.80
8408;DHT22;4241;48.452;9.216;2023-03-16T13:49:56;12.60;60.90
8408;DHT22;4241;48.452;9.216;2023-03-16T13:52:25;12.80;71.00
8408;DHT22;4241;48.452;9.216;2023-03-16T13:54:53;12.90;71.70
8408;DHT22;4241;48.452;9.216;2023-03-16T13:57:21;13.10;61.90
8408;DHT22;4241;48.452;9.216;2023-03-16T14:02:23;12.90;61.30
8408;DHT22;4241;48.452;9.216;2023-03-16T14:07:19;12.90;61.20
8408;DHT22;4241;48.452;9.216;2023-03-16T14:09:48;13.00;70.00
8408;DHT22;4241;48.452;9.216;2023-03-16T14:12:18;13.00;62.60
8408;DHT22;4241;48.452;9.216;2023-03-16T14:14:46;12.90;61.10
8408;DHT22;4241;48.452;9.216;2023-03-16T14:17:17;13.00;62.30
8408;DHT22;4241;48.452;9.216;2023-03-16T14:19:45;13.10;68.10
8408;DHT22;4241;48.452;9.216;2023-03-16T14:22:15;13.00;63.10
8408;DHT22;4241;48.452;9.216;2023-03-16T14:24:50;13.00;64.10
8408;DHT22;4241;48.452;9.216;2023-03-16T14:27:20;12.90;62.70
8408;DHT22;4241;48.452;9.216;2023-03-16T14:29:53;12.80;62.70
8408;DHT22;4241;48.452;9.216;2023-03-16T14:32:24;12.70;62.50
8408;DHT22;4241;48.452;9.216;2023-03-16T14:34:59;12.70;65.50
8408;DHT22;4241;48.452;9.216;2023-03-16T14:37:34;12.60;63.10
8408;DHT22;4241;48.452;9.216;2023-03-16T14:40:05;12.60;65.50
8408;DHT22;4241;48.452;9.216;2023-03-16T14:42:33;12.60;64.10
8408;DHT22;4241;48.452;9.216;2023-03-16T14:45:02;12.70;71.40
8408;DHT22;4241;48.452;9.216;2023-03-16T14:47:37;12.60;64.70
8408;DHT22;4241;48.452;9.216;2023-03-16T14:50:11;12.60;63.30
8408;DHT22;4241;48.452;9.216;2023-03-16T14:52:38;12.50;69.90
8408;DHT22;4241;48.452;9.216;2023-03-16T14:55:12;12.50;73.00
8408;DHT22;4241;48.452;9.216;2023-03-16T14:57:40;12.60;64.90
8408;DHT22;4241;48.452;9.216;2023-03-16T15:00:09;12.70;64.90
8408;DHT22;4241;48.452;9.216;2023-03-16T15:02:38;12.70;66.50
8408;DHT22;4241;48.452;9.216;2023-03-16T15:05:08;12.80;73.70
8408;DHT22;4241;48.452;9.216;2023-03-16T15:07:37;12.80;66.00
8408;DHT22;4241;48.452;9.216;2023-03-16T15:10:07;12.80;67.40
8408;DHT22;4241;48.452;9.216;2023-03-16T15:12:39;12.80;67.60
8408;DHT22;4241;48.452;9.216;2023-03-16T15:15:13;12.90;67.70
8408;DHT22;4241;48.452;9.216;2023-03-16T15:17:41;12.70;74.40
8408;DHT22;4241;48.452;9.216;2023-03-16T15:20:10;12.90;70.80
8408;DHT22;4241;48.452;9.216;2023-03-16T15:22:38;12.80;67.50
8408;DHT22;4241;48.452;9.216;2023-03-16T15:25:18;12.80;77.70
8408;DHT22;4241;48.452;9.216;2023-03-16T15:27:47;12.80;76.90
8408;DHT22;4241;48.452;9.216;2023-03-16T15:30:16;12.70;68.20
8408;DHT22;4241;48.452;9.216;2023-03-16T15:32:43;12.80;75.70
8408;DHT22;4241;48.452;9.216;2023-03-16T15:35:10;12.80;76.10
8408;DHT22;4241;48.452;9.216;2023-03-16T15:37:37;12.80;68.50
8408;DHT22;4241;48.452;9.216;2023-03-16T15:40:18;12.70;68.10
8408;DHT22;4241;48.452;9.216;2023-03-16T15:42:46;12.70;70.60
8408;DHT22;4241;48.452;9.216;2023-03-16T15:45:15;12.80;71.60
8408;DHT22;4241;48.452;9.216;2023-03-16T15:47:43;12.70;73.40
8408;DHT22;4241;48.452;9.216;2023-03-16T15:50:12;12.70;70.40
8408;DHT22;4241;48.452;9.216;2023-03-16T15:52:41;12.60;80.30
8408;DHT22;4241;48.452;9.216;2023-03-16T15:55:18;12.60;79.40
8408;DHT22;4241;48.452;9.216;2023-03-16T15:57:47;12.70;80.60
8408;DHT22;4241;48.452;9.216;2023-03-16T16:00:26;12.60;81.00
8408;DHT22;4241;48.452;9.216;2023-03-16T16:02:55;12.70;73.20
8408;DHT22;4241;48.452;9.216;2023-03-16T16:05:23;12.60;74.90
8408;DHT22;4241;48.452;9.216;2023-03-16T16:07:50;12.50;82.60
8408;DHT22;4241;48.452;9.216;2023-03-16T16:12:47;12.50;75.90
8408;DHT22;4241;48.452;9.216;2023-03-16T16:15:18;12.30;81.50
8408;DHT22;4241;48.452;9.216;2023-03-16T16:17:46;12.40;72.70
8408;DHT22;4241;48.452;9.216;2023-03-16T16:20:23;12.20;76.50
8408;DHT22;4241;48.452;9.216;2023-03-16T16:22:53;12.20;81.70
8408;DHT22;4241;48.452;9.216;2023-03-16T16:25:21;12.30;73.50
8408;DHT22;4241;48.452;9.216;2023-03-16T16:27:50;12.10;73.90
8408;DHT22;4241;48.452;9.216;2023-03-16T16:30:20;12.10;76.10
8408;DHT22;4241;48.452;9.216;2023-03-16T16:32:47;12.00;83.00
8408;DHT22;4241;48.452;9.216;2023-03-16T16:35:16;12.00;80.20
8408;DHT22;4241;48.452;9.216;2023-03-16T16:37:43;11.90;85.00
8408;DHT22;4241;48.452;9.216;2023-03-16T16:40:18;11.90;76.10
8408;DHT22;4241;48.452;9.216;2023-03-16T16:42:47;11.80;84.30
8408;DHT22;4241;48.452;9.216;2023-03-16T16:45:20;11.80;76.80
8408;DHT22;4241;48.452;9.216;2023-03-16T16:47:48;11.70;76.70
8408;DHT22;4241;48.452;9.216;2023-03-16T16:50:20;11.60;77.40
8408;DHT22;4241;48.452;9.216;2023-03-16T16:52:48;11.50;78.10
8408;DHT22;4241;48.452;9.216;2023-03-16T16:55:16;11.50;86.50
8408;DHT22;4241;48.452;9.216;2023-03-16T16:57:44;11.40;78.50
8408;DHT22;4241;48.452;9.216;2023-03-16T17:00:20;11.40;77.60
8408;DHT22;4241;48.452;9.216;2023-03-16T17:02:49;11.40;86.60
8408;DHT22;4241;48.452;9.216;2023-03-16T17:05:19;11.40;82.50
8408;DHT22;4241;48.452;9.216;2023-03-16T17:07:47;11.30;79.70
8408;DHT22;4241;48.452;9.216;2023-03-16T17:10:16;11.50;81.30
8408;DHT22;4241;48.452;9.216;2023-03-16T17:12:43;11.50;82.10
8408;DHT22;4241;48.452;9.216;2023-03-16T17:15:24;11.40;78.10
8408;DHT22;4241;48.452;9.216;2023-03-16T17:17:56;11.30;86.70
8408;DHT22;4241;48.452;9.216;2023-03-16T17:25:20;11.20;77.80
8408;DHT22;4241;48.452;9.216;2023-03-16T17:27:50;11.30;87.10
8408;DHT22;4241;48.452;9.216;2023-03-16T17:30:24;11.10;79.90
8408;DHT22;4241;48.452;9.216;2023-03-16T17:32:53;11.00;80.40
8408;DHT22;4241;48.452;9.216;2023-03-16T17:37:47;10.70;82.20
8408;DHT22;4241;48.452;9.216;2023-03-16T17:40:16;10.70;90.10
8408;DHT22;4241;48.452;9.216;2023-03-16T17:45:19;10.50;81.00
8408;DHT22;4241;48.452;9.216;2023-03-16T17:47:48;10.40;90.60
8408;DHT22;4241;48.452;9.216;2023-03-16T17:50:19;10.40;91.10
8408;DHT22;4241;48.452;9.216;2023-03-16T17:55:14;10.10;91.30
8408;DHT22;4241;48.452;9.216;2023-03-16T17:57:48;10.10;84.10
8408;DHT22;4241;48.452;9.216;2023-03-16T18:00:21;10.10;90.50
8408;DHT22;4241;48.452;9.216;2023-03-16T18:02:52;9.90;91.80
8408;DHT22;4241;48.452;9.216;2023-03-16T18:05:21;9.80;85.40
8408;DHT22;4241;48.452;9.216;2023-03-16T18:07:49;9.90;84.40
8408;DHT22;4241;48.452;9.216;2023-03-16T18:10:17;9.80;85.40
8408;DHT22;4241;48.452;9.216;2023-03-16T18:12:45;9.90;86.20
8408;DHT22;4241;48.452;9.216;2023-03-16T18:15:16;9.70;86.60
8408;DHT22;4241;48.452;9.216;2023-03-16T18:17:44;9.70;89.50
8408;DHT22;4241;48.452;9.216;2023-03-16T18:20:22;9.70;86.10
8408;DHT22;4241;48.452;9.216;2023-03-16T18:25:31;9.60;86.10
8408;DHT22;4241;48.452;9.216;2023-03-16T18:30:26;9.60;92.50
8408;DHT22;4241;48.452;9.216;2023-03-16T18:32:54;9.50;92.30
8408;DHT22;4241;48.452;9.216;2023-03-16T18:35:23;9.50;91.90
8408;DHT22;4241;48.452;9.216;2023-03-16T18:37:50;9.40;92.30
8408;DHT22;4241;48.452;9.216;2023-03-16T18:40:20;9.40;87.90
8408;DHT22;4241;48.452;9.216;2023-03-16T18:42:48;9.40;92.80
8408;DHT22;4241;48.452;9.216;2023-03-16T18:47:48;9.30;86.80
8408;DHT22;4241;48.452;9.216;2023-03-16T18:50:24;9.30;87.50
8408;DHT22;4241;48.452;9.216;2023-03-16T18:52:52;9.30;87.30
8408;DHT22;4241;48.452;9.216;2023-03-16T18:55:26;9.20;88.10
8408;DHT22;4241;48.452;9.216;2023-03-16T18:57:53;9.10;93.00
8408;DHT22;4241;48.452;9.216;2023-03-16T19:00:23;9.20;88.20
8408;DHT22;4241;48.452;9.216;2023-03-16T19:02:53;9.20;88.00
8408;DHT22;4241;48.452;9.216;2023-03-16T19:05:24;9.00;93.60
8408;DHT22;4241;48.452;9.216;2023-03-16T19:07:54;8.70;89.60
8408;DHT22;4241;48.452;9.216;2023-03-16T19:10:23;9.00;92.20
8408;DHT22;4241;48.452;9.216;2023-03-16T19:15:21;9.10;90.30
8408;DHT22;4241;48.452;9.216;2023-03-16T19:17:48;9.00;94.50
8408;DHT22;4241;48.452;9.216;2023-03-16T19:20:17;9.00;94.50
8408;DHT22;4241;48.452;9.216;2023-03-16T19:22:46;9.00;87.60
8408;DHT22;4241;48.452;9.216;2023-03-16T19:25:18;9.10;90.30
8408;DHT22;4241;48.452;9.216;2023-03-16T19:27:45;8.90;94.40
8408;DHT22;4241;48.452;9.216;2023-03-16T19:30:24;9.00;90.60